Time;durP1;ratioP1;P1;durP2;ratioP2;P2;SDS_P1;SDS_P2;PMS_P1;PMS_P2;Temp;Humidity;BMP_temperature;BMP_pressure;BME280_temperature;BME280_humidity;BME280_pressure;Samples;Min_cycle;Max_cycle;Signal;HPM_P1;HPM_P2
2021/01/25 00:01:04;;;;;;;;;;;;;;;7.76;56.37;99550.03;5026748;28;97337;-79
2021/01/25 00:03:30;;;;;;;;;;;;;;;7.74;56.61;99546.63;5029944;28;97449;-79
2021/01/25 00:05:56;;;;;;;;;;;;;;;7.67;56.66;99546.97;5025112;28;98984;-80
2021/01/25 00:08:21;;;;;;;;;;;;;;;7.47;57.25;99556.53;5025246;28;100098;-80
2021/01/25 00:10:48;;;;;;;;;;;;;;;7.37;57.24;99547.31;5014903;28;97710;-80
2021/01/25 00:13:14;;;;;;;;;;;;;;;7.48;57.01;99552.97;5029826;28;97215;-80
2021/01/25 00:15:40;;;;;;;;;;;;;;;7.53;56.78;99552.81;5028980;28;97952;-80
2021/01/25 00:18:06;;;;;;;;;;;;;;;7.45;57.09;99552.25;5022556;28;98076;-80
2021/01/25 00:20:32;;;;;;;;;;;;;;;7.65;56.86;99551.44;5025467;28;96943;-80
2021/01/25 00:23:21;;;;;;;;;;;;;;;7.39;57.73;99548.13;5035957;28;96852;-81
2021/01/25 00:25:47;;;;;;;;;;;;;;;7.34;57.52;99555.34;5028528;28;97302;-80
2021/01/25 00:28:14;;;;;;;;;;;;;;;7.44;57.27;99559.28;5032603;28;97851;-80
2021/01/25 00:30:40;;;;;;;;;;;;;;;7.56;56.78;99563.16;5030119;28;96823;-80
2021/01/25 00:33:06;;;;;;;;;;;;;;;7.66;56.89;99558.41;5033816;28;96711;-81
2021/01/25 00:35:31;;;;;;;;;;;;;;;7.88;56.37;99559.16;5023312;27;101950;-80
2021/01/25 00:37:57;;;;;;;;;;;;;;;7.79;56.33;99554.31;5031542;28;100479;-81
2021/01/25 00:40:34;;;;;;;;;;;;;;;7.53;56.88;99558.06;5043768;27;96774;-80
2021/01/25 00:43:00;;;;;;;;;;;;;;;7.66;56.61;99553.13;5054905;27;97192;-81
2021/01/25 00:45:27;;;;;;;;;;;;;;;7.81;56.45;99558.56;5051245;27;98961;-80
2021/01/25 00:47:53;;;;;;;;;;;;;;;7.54;56.97;99560.63;5051554;27;98064;-81
2021/01/25 00:50:19;;;;;;;;;;;;;;;7.53;56.82;99560.69;5033103;27;96750;-80
2021/01/25 00:52:44;;;;;;;;;;;;;;;7.71;56.98;99559.91;5040413;27;96845;-80
2021/01/25 00:55:11;;;;;;;;;;;;;;;7.24;58.07;99566.28;5051755;27;100916;-80
2021/01/25 00:57:38;;;;;;;;;;;;;;;7.46;57.29;99567.97;5050831;27;99060;-80
2021/01/25 01:00:06;;;;;;;;;;;;;;;7.44;57.66;99563.69;5046183;27;96788;-81
2021/01/25 01:02:32;;;;;;;;;;;;;;;7.26;58.45;99561.81;5051853;27;96823;-80
2021/01/25 01:04:58;;;;;;;;;;;;;;;7.56;57.46;99561.41;5053525;27;98955;-79
2021/01/25 01:07:24;;;;;;;;;;;;;;;7.66;57.08;99559.25;5043742;27;98318;-79
2021/01/25 01:09:50;;;;;;;;;;;;;;;7.14;57.84;99563.19;5051527;27;96735;-79
2021/01/25 01:12:15;;;;;;;;;;;;;;;7.50;57.91;99566.06;5050880;27;97020;-80
2021/01/25 01:14:41;;;;;;;;;;;;;;;7.46;57.49;99569.75;5049071;27;99276;-80
2021/01/25 01:17:07;;;;;;;;;;;;;;;7.24;58.31;99568.91;5052067;27;99235;-80
2021/01/25 01:19:34;;;;;;;;;;;;;;;7.41;58.00;99569.94;5052497;27;96915;-80
2021/01/25 01:22:00;;;;;;;;;;;;;;;7.20;58.80;99569.03;5052980;27;96887;-80
2021/01/25 01:24:25;;;;;;;;;;;;;;;7.13;58.46;99574.59;5052437;27;97018;-82
2021/01/25 01:26:51;;;;;;;;;;;;;;;7.15;58.47;99578.03;5050683;27;98926;-80
2021/01/25 01:29:17;;;;;;;;;;;;;;;7.31;58.25;99579.09;5036609;27;97944;-80
2021/01/25 01:31:43;;;;;;;;;;;;;;;7.33;57.92;99571.16;5051732;27;96842;-80
2021/01/25 01:34:09;;;;;;;;;;;;;;;7.16;57.55;99574.47;5051950;27;98964;-81
2021/01/25 01:36:43;;;;;;;;;;;;;;;7.35;57.71;99575.41;5050144;27;99086;-80
2021/01/25 01:39:09;;;;;;;;;;;;;;;7.44;57.68;99574.19;5049321;27;97556;-81
2021/01/25 01:41:35;;;;;;;;;;;;;;;7.36;57.26;99573.66;5030918;28;96849;-80
2021/01/25 01:44:02;;;;;;;;;;;;;;;7.59;56.67;99573.56;5041343;28;98911;-81
2021/01/25 01:46:28;;;;;;;;;;;;;;;7.58;56.70;99577.97;5050273;27;98064;-81
2021/01/25 01:48:54;;;;;;;;;;;;;;;7.35;56.65;99570.16;5050224;27;96766;-81
2021/01/25 01:51:20;;;;;;;;;;;;;;;7.67;56.05;99581.16;5054280;27;96697;-81
2021/01/25 01:53:47;;;;;;;;;;;;;;;7.51;56.22;99581.78;5052358;28;97826;-82
2021/01/25 01:56:12;;;;;;;;;;;;;;;7.56;56.51;99581.56;5039627;27;98202;-81
2021/01/25 01:58:39;;;;;;;;;;;;;;;7.32;56.50;99579.97;5025066;28;96822;-81
2021/01/25 02:01:04;;;;;;;;;;;;;;;7.73;55.76;99576.47;5028899;28;96934;-81
2021/01/25 02:03:30;;;;;;;;;;;;;;;7.37;56.34;99578.84;5035580;28;98908;-81
2021/01/25 02:05:56;;;;;;;;;;;;;;;7.44;56.26;99582.09;5033982;27;96854;-81
2021/01/25 02:08:23;;;;;;;;;;;;;;;7.42;56.15;99581.28;5027147;28;96764;-82
2021/01/25 02:10:50;;;;;;;;;;;;;;;7.45;56.22;99582.03;5028042;28;96830;-81
2021/01/25 02:13:16;;;;;;;;;;;;;;;7.40;56.10;99584.00;5032010;28;98131;-81
2021/01/25 02:15:43;;;;;;;;;;;;;;;7.37;56.16;99583.25;5031715;28;99296;-81
2021/01/25 02:18:08;;;;;;;;;;;;;;;7.40;56.72;99586.63;5025616;28;98718;-80
2021/01/25 02:20:35;;;;;;;;;;;;;;;7.17;56.56;99584.06;5030076;28;96978;-80
2021/01/25 02:23:29;;;;;;;;;;;;;;;7.26;56.43;99586.31;5031860;28;98477;-80
2021/01/25 02:26:04;;;;;;;;;;;;;;;7.16;56.81;99590.22;5015266;28;99355;-81
2021/01/25 02:28:31;;;;;;;;;;;;;;;7.06;57.02;99604.66;5024529;28;96846;-81
2021/01/25 02:30:58;;;;;;;;;;;;;;;7.07;56.88;99598.47;5021723;28;96840;-80
2021/01/25 02:33:25;;;;;;;;;;;;;;;7.15;56.38;99593.78;5029807;28;99164;-80
2021/01/25 02:35:51;;;;;;;;;;;;;;;7.27;55.87;99601.19;5030802;28;101882;-80
2021/01/25 02:38:18;;;;;;;;;;;;;;;7.17;56.20;99605.06;5029222;28;96856;-81
2021/01/25 02:40:47;;;;;;;;;;;;;;;7.28;56.04;99609.91;5011584;27;96891;-81
2021/01/25 02:43:14;;;;;;;;;;;;;;;7.19;56.01;99606.72;5017658;28;99222;-81
2021/01/25 02:45:42;;;;;;;;;;;;;;;7.13;55.81;99608.75;5025305;28;99402;-80
2021/01/25 02:48:08;;;;;;;;;;;;;;;7.20;55.63;99608.44;5026681;28;96839;-81
2021/01/25 02:50:34;;;;;;;;;;;;;;;6.72;57.41;99610.34;5031426;28;97094;-81
2021/01/25 02:53:00;;;;;;;;;;;;;;;6.96;56.22;99609.38;5030322;28;97177;-81
2021/01/25 02:55:26;;;;;;;;;;;;;;;6.94;56.27;99620.88;5029584;27;97891;-80
2021/01/25 02:57:53;;;;;;;;;;;;;;;6.91;56.70;99611.34;5029148;28;96842;-80
2021/01/25 03:00:19;;;;;;;;;;;;;;;7.12;55.66;99614.91;5033923;28;97090;-80
2021/01/25 03:02:46;;;;;;;;;;;;;;;7.03;56.12;99616.13;5021799;28;101986;-80
2021/01/25 03:05:12;;;;;;;;;;;;;;;7.20;55.66;99613.69;5031922;28;100662;-80
2021/01/25 03:07:38;;;;;;;;;;;;;;;6.53;57.73;99614.56;5044449;28;96846;-80
2021/01/25 03:10:05;;;;;;;;;;;;;;;6.97;56.14;99623.38;5042153;27;96731;-80
2021/01/25 03:12:31;;;;;;;;;;;;;;;7.08;55.51;99613.34;5045439;28;98106;-81
2021/01/25 03:14:57;;;;;;;;;;;;;;;7.32;54.97;99614.13;5031083;28;96714;-81
2021/01/25 03:17:22;;;;;;;;;;;;;;;7.06;54.88;99620.41;5045476;28;96960;-80
2021/01/25 03:19:49;;;;;;;;;;;;;;;6.98;55.60;99618.06;5037269;28;97113;-80
2021/01/25 03:22:15;;;;;;;;;;;;;;;6.95;55.62;99622.59;5049800;28;97812;-81
2021/01/25 03:24:41;;;;;;;;;;;;;;;7.18;55.73;99630.44;5036691;28;99021;-81
2021/01/25 03:27:07;;;;;;;;;;;;;;;7.30;54.77;99614.19;5037103;28;97119;-80
2021/01/25 03:29:33;;;;;;;;;;;;;;;7.30;54.63;99623.81;5054916;28;96698;-81
2021/01/25 03:31:59;;;;;;;;;;;;;;;7.15;54.77;99623.50;5054648;28;96517;-81
2021/01/25 03:34:24;;;;;;;;;;;;;;;7.04;54.56;99630.97;5052266;28;100285;-81
2021/01/25 03:36:51;;;;;;;;;;;;;;;7.42;53.72;99628.59;5044509;28;96505;-81
2021/01/25 03:39:17;;;;;;;;;;;;;;;7.44;53.84;99630.25;5037933;28;96829;-79
2021/01/25 03:41:43;;;;;;;;;;;;;;;7.39;53.85;99634.84;5024019;28;97863;-81
2021/01/25 03:44:09;;;;;;;;;;;;;;;6.98;54.84;99640.84;5023816;28;98873;-80
2021/01/25 03:46:35;;;;;;;;;;;;;;;7.22;54.37;99639.06;5034024;28;98270;-80
2021/01/25 03:49:00;;;;;;;;;;;;;;;7.33;54.44;99642.97;5034167;28;96909;-81
2021/01/25 03:51:26;;;;;;;;;;;;;;;7.28;54.29;99642.31;5028597;28;98949;-80
2021/01/25 03:53:53;;;;;;;;;;;;;;;7.08;55.44;99637.84;5031747;28;99020;-80
2021/01/25 03:56:19;;;;;;;;;;;;;;;7.25;54.71;99646.81;5029986;28;96948;-80
2021/01/25 03:58:44;;;;;;;;;;;;;;;7.30;54.36;99644.84;5028955;28;97212;-80
2021/01/25 04:01:11;;;;;;;;;;;;;;;7.37;54.18;99644.56;5020802;28;99174;-80
2021/01/25 04:03:37;;;;;;;;;;;;;;;7.37;54.10;99643.69;5027832;28;98974;-79
2021/01/25 04:06:02;;;;;;;;;;;;;;;7.42;53.52;99645.22;5034212;28;96933;-80
2021/01/25 04:08:28;;;;;;;;;;;;;;;7.17;54.40;99639.22;5017795;28;96819;-79
2021/01/25 04:10:55;;;;;;;;;;;;;;;7.18;54.50;99646.19;5032363;28;101895;-79
2021/01/25 04:13:21;;;;;;;;;;;;;;;7.28;54.61;99639.69;5033739;28;99371;-80
2021/01/25 04:15:46;;;;;;;;;;;;;;;7.11;54.67;99648.22;5036087;28;96740;-78
2021/01/25 04:18:12;;;;;;;;;;;;;;;7.17;54.56;99644.47;5034470;28;96814;-79
2021/01/25 04:20:38;;;;;;;;;;;;;;;7.38;54.13;99642.78;5035359;28;100684;-79
2021/01/25 04:23:04;;;;;;;;;;;;;;;7.37;54.12;99646.31;5027487;28;99066;-78
2021/01/25 04:25:30;;;;;;;;;;;;;;;7.18;54.61;99656.69;5038141;28;96704;-80
2021/01/25 04:27:57;;;;;;;;;;;;;;;7.44;53.85;99651.28;5040881;28;97527;-79
2021/01/25 04:30:24;;;;;;;;;;;;;;;6.76;55.69;99649.53;5043765;28;98394;-80
2021/01/25 04:32:50;;;;;;;;;;;;;;;6.98;56.22;99653.97;5027330;28;101919;-80
2021/01/25 04:35:16;;;;;;;;;;;;;;;7.04;55.67;99664.25;5034625;28;96626;-80
2021/01/25 04:37:43;;;;;;;;;;;;;;;6.86;56.02;99655.31;5041862;28;97930;-80
2021/01/25 04:40:10;;;;;;;;;;;;;;;6.78;55.84;99650.34;5031791;27;101242;-80
2021/01/25 04:42:37;;;;;;;;;;;;;;;7.11;55.46;99652.59;5051004;27;98974;-80
2021/01/25 04:45:05;;;;;;;;;;;;;;;7.41;54.61;99651.41;5044247;27;97595;-81
2021/01/25 04:47:31;;;;;;;;;;;;;;;7.10;55.51;99653.50;5053922;27;96825;-81
2021/01/25 04:49:56;;;;;;;;;;;;;;;7.15;55.53;99662.09;5050151;27;99280;-81
2021/01/25 04:52:22;;;;;;;;;;;;;;;7.22;55.55;99664.41;5053053;27;96845;-81
2021/01/25 04:54:49;;;;;;;;;;;;;;;7.08;55.29;99679.00;5052539;27;97037;-81
2021/01/25 04:57:15;;;;;;;;;;;;;;;7.14;55.67;99676.13;5052339;27;96738;-80
2021/01/25 04:59:41;;;;;;;;;;;;;;;7.00;55.61;99675.81;5038346;27;98200;-80
2021/01/25 05:02:09;;;;;;;;;;;;;;;6.86;56.64;99688.59;5051549;27;99253;-79
2021/01/25 05:04:35;;;;;;;;;;;;;;;6.49;57.05;99686.44;5046951;27;97302;-80
2021/01/25 05:07:01;;;;;;;;;;;;;;;6.66;57.54;99695.44;5037208;27;96846;-81
2021/01/25 05:09:26;;;;;;;;;;;;;;;7.00;56.41;99692.44;5055122;27;98909;-80
2021/01/25 05:11:56;;;;;;;;;;;;;;;7.16;55.79;99690.91;5048184;27;99213;-80
2021/01/25 05:14:22;;;;;;;;;;;;;;;7.17;55.80;99694.41;5036882;27;97433;-80
2021/01/25 05:16:48;;;;;;;;;;;;;;;7.26;55.61;99690.56;5040732;27;97609;-80
2021/01/25 05:19:17;;;;;;;;;;;;;;;7.13;55.91;99690.19;5042821;27;99191;-80
2021/01/25 05:21:43;;;;;;;;;;;;;;;7.09;56.10;99678.91;5035353;27;98219;-79
2021/01/25 05:24:11;;;;;;;;;;;;;;;7.13;55.75;99679.69;5034071;27;96814;-80
2021/01/25 05:26:40;;;;;;;;;;;;;;;6.94;56.11;99679.53;5037492;27;96756;-80
2021/01/25 05:29:06;;;;;;;;;;;;;;;7.02;56.00;99674.00;5039801;27;99621;-79
2021/01/25 05:31:32;;;;;;;;;;;;;;;7.00;56.36;99678.44;5055606;27;100994;-78
2021/01/25 05:33:58;;;;;;;;;;;;;;;7.17;56.08;99671.59;5056567;27;97776;-78
2021/01/25 05:36:26;;;;;;;;;;;;;;;6.93;56.14;99684.81;5041448;27;96877;-79
2021/01/25 05:38:52;;;;;;;;;;;;;;;7.19;55.96;99674.19;5048727;27;97820;-79
2021/01/25 05:41:19;;;;;;;;;;;;;;;7.50;54.79;99679.94;5028877;27;98234;-79
2021/01/25 05:43:45;;;;;;;;;;;;;;;7.38;55.17;99680.44;5018557;28;96792;-79
2021/01/25 05:46:12;;;;;;;;;;;;;;;7.00;56.30;99673.19;5020663;28;96808;-79
2021/01/25 05:48:38;;;;;;;;;;;;;;;7.35;55.25;99677.09;5021607;28;98933;-79
2021/01/25 05:51:10;;;;;;;;;;;;;;;7.28;55.34;99673.84;5027157;28;100558;-79
2021/01/25 05:53:38;;;;;;;;;;;;;;;7.29;55.27;99670.28;5020902;28;97674;-78
2021/01/25 05:56:05;;;;;;;;;;;;;;;7.00;56.16;99676.66;5037899;28;96811;-80
2021/01/25 05:58:31;;;;;;;;;;;;;;;7.30;55.42;99674.63;5036076;28;98125;-79
2021/01/25 06:00:57;;;;;;;;;;;;;;;7.31;54.76;99680.72;5037879;28;97356;-80
2021/01/25 06:03:23;;;;;;;;;;;;;;;7.35;55.29;99677.91;5033981;28;96950;-80
2021/01/25 06:05:52;;;;;;;;;;;;;;;7.22;55.72;99680.16;5032935;28;97246;-80
2021/01/25 06:08:20;;;;;;;;;;;;;;;7.55;54.89;99683.25;5035573;28;99466;-80
2021/01/25 06:10:53;;;;;;;;;;;;;;;7.08;55.35;99684.25;5023847;27;100847;-79
2021/01/25 06:13:22;;;;;;;;;;;;;;;7.28;55.46;99684.34;5022113;28;96734;-80
2021/01/25 06:15:49;;;;;;;;;;;;;;;7.30;55.31;99686.91;5032876;28;96859;-80
2021/01/25 06:18:17;;;;;;;;;;;;;;;7.47;54.59;99689.75;5020682;28;101603;-80
2021/01/25 06:20:43;;;;;;;;;;;;;;;7.34;54.71;99688.50;5035473;28;100597;-79
2021/01/25 06:23:09;;;;;;;;;;;;;;;7.20;55.13;99692.53;5033680;28;96734;-79
2021/01/25 06:25:36;;;;;;;;;;;;;;;7.15;55.55;99693.63;5024642;28;96900;-80
2021/01/25 06:28:03;;;;;;;;;;;;;;;7.12;55.80;99693.72;5031386;28;97938;-80
2021/01/25 06:30:29;;;;;;;;;;;;;;;7.15;55.10;99696.25;5032976;27;100577;-80
2021/01/25 06:32:55;;;;;;;;;;;;;;;7.04;55.71;99696.63;5027114;28;96903;-80
2021/01/25 06:35:21;;;;;;;;;;;;;;;7.02;55.59;99700.25;5034320;28;96866;-80
2021/01/25 06:37:52;;;;;;;;;;;;;;;7.20;55.59;99702.19;5036497;28;98670;-81
2021/01/25 06:40:23;;;;;;;;;;;;;;;7.31;55.26;99707.00;5019210;28;99646;-80
2021/01/25 06:42:49;;;;;;;;;;;;;;;7.25;55.21;99707.25;5034941;28;97019;-79
2021/01/25 06:45:16;;;;;;;;;;;;;;;7.31;55.11;99713.13;5031041;28;97133;-79
2021/01/25 06:47:42;;;;;;;;;;;;;;;7.42;54.83;99715.31;5024850;28;99228;-80
2021/01/25 06:50:10;;;;;;;;;;;;;;;7.39;54.66;99713.69;5032219;28;99292;-79
2021/01/25 06:52:36;;;;;;;;;;;;;;;7.46;54.46;99717.78;5023513;28;98157;-79
2021/01/25 06:55:04;;;;;;;;;;;;;;;7.48;54.35;99723.00;5023127;28;96835;-79
2021/01/25 06:57:33;;;;;;;;;;;;;;;7.18;54.96;99722.38;5029826;28;100829;-79
2021/01/25 07:00:04;;;;;;;;;;;;;;;7.16;55.41;99738.19;5034383;28;99303;-79
2021/01/25 07:02:31;;;;;;;;;;;;;;;7.10;55.89;99737.56;5032904;28;96901;-79
2021/01/25 07:04:58;;;;;;;;;;;;;;;7.32;55.25;99740.25;5016573;28;97276;-81
2021/01/25 07:07:24;;;;;;;;;;;;;;;7.19;55.54;99739.88;5022312;28;98993;-78
2021/01/25 07:09:52;;;;;;;;;;;;;;;7.14;55.61;99742.69;5020108;27;99047;-79
2021/01/25 07:12:18;;;;;;;;;;;;;;;6.95;55.98;99748.66;5035473;28;96602;-79
2021/01/25 07:14:45;;;;;;;;;;;;;;;7.04;55.72;99753.56;5035207;28;97139;-79
2021/01/25 07:17:11;;;;;;;;;;;;;;;6.99;55.71;99755.50;5034911;27;99037;-79
2021/01/25 07:19:38;;;;;;;;;;;;;;;7.00;55.62;99751.97;5032525;28;98865;-80
2021/01/25 07:22:04;;;;;;;;;;;;;;;7.10;55.89;99755.97;5025646;28;96936;-78
2021/01/25 07:24:30;;;;;;;;;;;;;;;7.28;55.31;99747.41;5028890;28;97774;-79
2021/01/25 07:26:57;;;;;;;;;;;;;;;7.50;54.48;99753.53;5036743;28;101795;-79
2021/01/25 07:29:23;;;;;;;;;;;;;;;6.94;55.33;99765.34;5033680;27;99064;-79
2021/01/25 07:31:50;;;;;;;;;;;;;;;7.19;55.31;99769.63;5041449;28;96806;-79
2021/01/25 07:34:16;;;;;;;;;;;;;;;7.31;54.63;99768.31;5037399;27;96783;-79
2021/01/25 07:36:43;;;;;;;;;;;;;;;7.34;54.70;99780.50;5039070;28;99187;-80
2021/01/25 07:39:09;;;;;;;;;;;;;;;7.22;55.10;99779.16;5037252;28;101238;-79
2021/01/25 07:41:35;;;;;;;;;;;;;;;6.95;55.56;99777.56;5041766;27;96739;-79
2021/01/25 07:44:01;;;;;;;;;;;;;;;7.18;54.82;99788.06;5048422;28;96688;-79
2021/01/25 07:46:28;;;;;;;;;;;;;;;7.14;54.79;99781.22;5051981;28;99988;-79
2021/01/25 07:48:54;;;;;;;;;;;;;;;7.03;54.97;99778.97;5051420;28;99407;-80
2021/01/25 07:51:21;;;;;;;;;;;;;;;6.98;55.16;99783.53;5048589;28;96837;-81
2021/01/25 07:53:48;;;;;;;;;;;;;;;7.27;54.69;99785.13;5037101;28;96843;-78
2021/01/25 07:56:17;;;;;;;;;;;;;;;7.18;54.86;99785.44;5035888;28;98816;-79
2021/01/25 07:58:43;;;;;;;;;;;;;;;7.34;54.17;99789.22;5024265;27;99153;-80
2021/01/25 08:01:12;;;;;;;;;;;;;;;7.28;53.96;99785.97;5018108;28;96761;-81
2021/01/25 08:03:41;;;;;;;;;;;;;;;7.40;53.98;99791.63;5038451;28;96836;-80
2021/01/25 08:06:07;;;;;;;;;;;;;;;7.48;53.71;99792.16;5026790;27;100529;-80
2021/01/25 08:08:34;;;;;;;;;;;;;;;7.32;54.07;99796.31;5041870;28;101477;-81
2021/01/25 08:11:01;;;;;;;;;;;;;;;7.36;54.07;99802.28;5038407;28;97189;-81
2021/01/25 08:13:32;;;;;;;;;;;;;;;6.88;54.65;99795.31;5035283;27;97154;-80
2021/01/25 08:15:59;;;;;;;;;;;;;;;7.18;54.39;99790.69;5022087;28;99063;-80
2021/01/25 08:18:30;;;;;;;;;;;;;;;7.35;53.87;99796.16;5035371;27;100225;-80
2021/01/25 08:20:57;;;;;;;;;;;;;;;7.19;54.32;99795.91;5036374;27;96759;-79
2021/01/25 08:23:24;;;;;;;;;;;;;;;7.23;53.88;99801.88;5034551;28;96894;-80
2021/01/25 08:25:55;;;;;;;;;;;;;;;7.46;53.88;99804.53;5035465;28;100739;-80
2021/01/25 08:28:23;;;;;;;;;;;;;;;7.60;53.25;99802.25;5039887;27;97404;-81
2021/01/25 08:30:51;;;;;;;;;;;;;;;7.45;53.72;99808.06;5050310;27;97313;-81
2021/01/25 08:33:26;;;;;;;;;;;;;;;7.59;53.46;99818.06;5034436;28;97424;-80
2021/01/25 08:35:54;;;;;;;;;;;;;;;7.14;54.46;99820.63;5036463;27;99378;-78
2021/01/25 08:38:24;;;;;;;;;;;;;;;7.45;53.34;99826.47;5024943;27;99034;-79
2021/01/25 08:40:50;;;;;;;;;;;;;;;7.27;53.88;99819.28;5024160;27;97437;-80
2021/01/25 08:43:21;;;;;;;;;;;;;;;7.65;53.30;99830.97;5023789;28;98424;-79
2021/01/25 08:45:48;;;;;;;;;;;;;;;7.55;53.08;99835.72;5021550;27;98886;-80
2021/01/25 08:48:15;;;;;;;;;;;;;;;7.47;53.51;99829.91;5022806;28;99241;-79
2021/01/25 08:50:41;;;;;;;;;;;;;;;7.65;52.97;99832.75;5024688;28;98432;-80
2021/01/25 08:53:09;;;;;;;;;;;;;;;7.68;53.26;99830.03;5026462;27;98542;-79
2021/01/25 08:55:39;;;;;;;;;;;;;;;7.67;52.86;99844.06;5021847;28;116638;-79
2021/01/25 08:58:14;;;;;;;;;;;;;;;7.39;53.57;99839.84;5029614;28;98953;-79
2021/01/25 09:00:42;;;;;;;;;;;;;;;7.55;52.83;99834.84;5022548;28;97619;-78
2021/01/25 09:03:10;;;;;;;;;;;;;;;7.44;53.29;99837.91;5014046;27;97880;-79
2021/01/25 09:05:37;;;;;;;;;;;;;;;7.25;53.78;99834.22;5023171;27;101320;-79
2021/01/25 09:08:03;;;;;;;;;;;;;;;7.88;52.35;99846.72;5023018;27;98476;-80
2021/01/25 09:10:29;;;;;;;;;;;;;;;7.74;52.39;99842.94;5033121;28;96811;-80
2021/01/25 09:12:55;;;;;;;;;;;;;;;7.94;52.11;99832.50;5029340;27;97256;-79
2021/01/25 09:15:21;;;;;;;;;;;;;;;8.01;51.64;99847.09;5029453;27;101788;-79
2021/01/25 09:17:47;;;;;;;;;;;;;;;7.85;52.10;99856.53;5028542;27;98680;-80
2021/01/25 09:20:14;;;;;;;;;;;;;;;8.03;51.84;99850.53;5026254;28;97363;-78
2021/01/25 09:22:40;;;;;;;;;;;;;;;7.91;52.11;99853.66;5030058;27;97175;-80
2021/01/25 09:25:07;;;;;;;;;;;;;;;8.08;51.41;99856.47;5027028;27;98670;-80
2021/01/25 09:27:33;;;;;;;;;;;;;;;7.60;52.73;99859.22;5025128;27;100663;-80
2021/01/25 09:29:58;;;;;;;;;;;;;;;7.61;52.29;99860.94;5028661;28;98457;-79
2021/01/25 09:32:24;;;;;;;;;;;;;;;7.72;52.47;99865.78;5033723;28;96873;-80
2021/01/25 09:34:50;;;;;;;;;;;;;;;8.13;51.51;99869.47;5026142;27;99003;-79
2021/01/25 09:37:16;;;;;;;;;;;;;;;8.17;51.49;99868.41;5034927;28;97765;-78
2021/01/25 09:39:43;;;;;;;;;;;;;;;8.19;50.83;99862.19;5035696;27;97101;-80
2021/01/25 09:42:09;;;;;;;;;;;;;;;8.09;50.98;99867.84;5046079;27;96680;-79
2021/01/25 09:44:36;;;;;;;;;;;;;;;8.26;50.69;99871.56;5043427;27;99279;-79
2021/01/25 09:47:07;;;;;;;;;;;;;;;8.68;49.76;99883.91;5033507;27;98813;-79
2021/01/25 09:49:33;;;;;;;;;;;;;;;8.54;50.06;99887.09;5028476;27;96829;-79
2021/01/25 09:51:59;;;;;;;;;;;;;;;8.45;50.23;99887.50;5028690;28;96814;-78
2021/01/25 09:54:25;;;;;;;;;;;;;;;8.34;50.52;99895.81;5030543;27;99255;-79
2021/01/25 09:56:52;;;;;;;;;;;;;;;8.18;50.58;99902.56;5042378;27;98873;-79
2021/01/25 09:59:20;;;;;;;;;;;;;;;8.62;49.67;99889.44;5030599;27;98300;-78
2021/01/25 10:01:46;;;;;;;;;;;;;;;8.54;49.71;99899.41;5023877;28;96997;-79
2021/01/25 10:04:12;;;;;;;;;;;;;;;8.47;50.13;99896.16;5027997;27;101461;-79
2021/01/25 10:06:38;;;;;;;;;;;;;;;8.51;49.68;99896.91;5029692;27;98341;-79
2021/01/25 10:09:04;;;;;;;;;;;;;;;8.55;49.69;99904.63;5028400;28;96985;-79
2021/01/25 10:11:30;;;;;;;;;;;;;;;8.84;49.37;99899.94;5027117;28;97018;-79
2021/01/25 10:13:57;;;;;;;;;;;;;;;8.69;49.25;99901.44;5029676;28;98857;-79
2021/01/25 10:16:23;;;;;;;;;;;;;;;8.68;49.94;99899.72;5027544;28;98241;-78
2021/01/25 10:18:49;;;;;;;;;;;;;;;8.29;50.33;99905.63;5029941;28;96893;-80
2021/01/25 10:21:16;;;;;;;;;;;;;;;7.51;51.77;99907.75;5028422;27;97186;-80
2021/01/25 10:23:42;;;;;;;;;;;;;;;7.98;51.33;99913.00;5013031;28;100913;-81
2021/01/25 10:26:11;;;;;;;;;;;;;;;7.97;51.54;99916.56;5032589;28;98516;-80
2021/01/25 10:28:37;;;;;;;;;;;;;;;7.95;50.82;99915.75;5036303;27;97253;-81
2021/01/25 10:31:04;;;;;;;;;;;;;;;8.12;50.77;99909.84;5029055;28;96906;-81
2021/01/25 10:33:30;;;;;;;;;;;;;;;8.54;49.66;99909.94;5026864;28;98973;-80
2021/01/25 10:35:55;;;;;;;;;;;;;;;7.99;50.73;99920.00;5025828;27;98877;-77
2021/01/25 10:38:21;;;;;;;;;;;;;;;8.43;50.19;99920.06;5025911;27;96889;-78
2021/01/25 10:40:47;;;;;;;;;;;;;;;8.34;50.12;99919.50;5031998;27;97129;-79
2021/01/25 10:43:13;;;;;;;;;;;;;;;8.75;49.31;99917.84;5025439;27;99367;-80
2021/01/25 10:45:39;;;;;;;;;;;;;;;8.62;49.08;99918.41;5023678;27;100913;-80
2021/01/25 10:48:05;;;;;;;;;;;;;;;8.63;48.56;99923.63;5022196;28;96931;-79
2021/01/25 10:50:31;;;;;;;;;;;;;;;8.65;48.43;99915.66;5022662;27;97275;-79
2021/01/25 10:52:57;;;;;;;;;;;;;;;8.20;49.78;99928.84;5026714;28;97901;-78
2021/01/25 10:55:23;;;;;;;;;;;;;;;8.70;48.61;99919.81;5025507;27;99204;-79
2021/01/25 10:57:49;;;;;;;;;;;;;;;8.44;49.29;99929.69;5026505;27;96913;-78
2021/01/25 11:00:17;;;;;;;;;;;;;;;8.59;48.75;99929.06;5028472;27;97053;-78
2021/01/25 11:02:43;;;;;;;;;;;;;;;8.37;49.59;99927.28;5026936;28;98863;-79
2021/01/25 11:05:10;;;;;;;;;;;;;;;8.54;48.80;99928.38;5028449;28;99271;-79
2021/01/25 11:07:37;;;;;;;;;;;;;;;8.64;48.52;99935.88;5027641;27;96938;-79
2021/01/25 11:10:03;;;;;;;;;;;;;;;8.27;49.34;99940.84;5027906;28;96949;-79
2021/01/25 11:12:28;;;;;;;;;;;;;;;8.47;48.99;99934.84;5018683;28;97957;-79
2021/01/25 11:14:54;;;;;;;;;;;;;;;8.08;49.44;99945.94;5026215;27;99867;-79
2021/01/25 11:17:20;;;;;;;;;;;;;;;8.24;48.88;99946.22;5028472;27;96971;-79
2021/01/25 11:19:46;;;;;;;;;;;;;;;7.60;51.10;99951.25;5022895;28;96699;-80
2021/01/25 11:22:13;;;;;;;;;;;;;;;8.15;49.25;99957.94;5025684;28;101443;-79
2021/01/25 11:24:38;;;;;;;;;;;;;;;8.25;48.75;99954.06;5032588;27;98793;-80
2021/01/25 11:27:05;;;;;;;;;;;;;;;8.28;48.87;99946.03;5029935;28;96912;-80
2021/01/25 11:29:32;;;;;;;;;;;;;;;8.23;48.95;99945.34;5036968;27;96866;-78
2021/01/25 11:31:58;;;;;;;;;;;;;;;8.65;48.28;99948.13;5031573;27;101936;-78
2021/01/25 11:34:24;;;;;;;;;;;;;;;8.35;48.36;99952.81;5040442;27;98911;-79
2021/01/25 11:36:51;;;;;;;;;;;;;;;8.16;48.78;99958.81;5037986;28;96929;-78
2021/01/25 11:39:17;;;;;;;;;;;;;;;8.30;49.36;99962.66;5031570;28;96844;-78
2021/01/25 11:41:43;;;;;;;;;;;;;;;8.33;48.50;99957.28;5032245;27;99262;-78
2021/01/25 11:44:09;;;;;;;;;;;;;;;8.15;48.53;99963.22;5030623;27;98790;-80
2021/01/25 11:46:35;;;;;;;;;;;;;;;8.10;48.98;99965.16;5034555;28;96921;-80
2021/01/25 11:49:00;;;;;;;;;;;;;;;8.34;48.48;99964.25;5042572;28;96961;-80
2021/01/25 11:51:26;;;;;;;;;;;;;;;8.26;49.04;99961.03;5042143;28;97886;-78
2021/01/25 11:53:52;;;;;;;;;;;;;;;8.38;48.86;99971.13;5039047;28;98915;-80
2021/01/25 11:56:19;;;;;;;;;;;;;;;8.50;48.68;99967.16;5041818;28;96891;-80
2021/01/25 11:58:45;;;;;;;;;;;;;;;8.65;48.61;99971.81;5047653;28;96838;-80
2021/01/25 12:01:11;;;;;;;;;;;;;;;8.42;48.20;99973.63;5046363;27;97776;-80
2021/01/25 12:03:36;;;;;;;;;;;;;;;8.28;48.88;99977.63;5043261;28;97132;-79
2021/01/25 12:06:03;;;;;;;;;;;;;;;8.02;49.74;99983.00;5044811;28;97093;-80
2021/01/25 12:08:28;;;;;;;;;;;;;;;7.63;50.71;99985.31;5041821;28;97609;-79
2021/01/25 12:10:54;;;;;;;;;;;;;;;7.81;50.23;99994.34;5031533;28;98137;-80
2021/01/25 12:13:21;;;;;;;;;;;;;;;7.43;51.25;99985.13;5032033;27;101137;-81
2021/01/25 12:15:47;;;;;;;;;;;;;;;7.45;51.54;99980.69;5034046;28;96822;-80
2021/01/25 12:18:13;;;;;;;;;;;;;;;7.67;50.78;99983.44;5024241;28;98449;-80
2021/01/25 12:20:39;;;;;;;;;;;;;;;7.81;50.67;99975.91;5032843;27;97766;-81
2021/01/25 12:23:05;;;;;;;;;;;;;;;8.17;49.87;99978.94;5025880;27;99491;-80
2021/01/25 12:25:31;;;;;;;;;;;;;;;8.12;49.82;99973.00;5032466;28;96905;-79
2021/01/25 12:27:57;;;;;;;;;;;;;;;8.27;49.30;99982.97;5031477;27;97637;-80
2021/01/25 12:30:24;;;;;;;;;;;;;;;8.33;49.09;99977.50;5029212;28;98107;-80
2021/01/25 12:32:51;;;;;;;;;;;;;;;8.19;49.07;99982.38;5031826;28;101432;-81
2021/01/25 12:35:17;;;;;;;;;;;;;;;8.21;48.63;99977.91;5032648;28;96808;-80
2021/01/25 12:37:44;;;;;;;;;;;;;;;8.15;49.16;99972.88;5028687;28;97026;-81
2021/01/25 12:40:11;;;;;;;;;;;;;;;8.52;47.93;99981.13;5027159;27;99660;-80
2021/01/25 12:42:37;;;;;;;;;;;;;;;8.13;48.48;99980.84;5029898;27;101508;-80
2021/01/25 12:45:03;;;;;;;;;;;;;;;8.30;48.45;99983.72;5029041;27;99021;-80
2021/01/25 12:47:30;;;;;;;;;;;;;;;7.78;49.51;99981.28;5032627;27;96902;-81
2021/01/25 12:49:56;;;;;;;;;;;;;;;7.72;50.02;99978.88;5030322;28;99022;-80
2021/01/25 12:52:22;;;;;;;;;;;;;;;8.45;48.35;99987.53;5034733;27;100109;-82